Time;durP1;ratioP1;P1;durP2;ratioP2;P2;SDS_P1;SDS_P2;PMS_P1;PMS_P2;Temp;Humidity;BMP_temperature;BMP_pressure;BME280_temperature;BME280_humidity;BME280_pressure;Samples;Min_cycle;Max_cycle;Signal;HPM_P1;HPM_P2
2022/09/04 00:00:18;;;;;;;0.00;0.00;;;;;;;15.24;83.71;101292.53;4965324;28;20022;-73
2022/09/04 00:03:02;;;;;;;0.00;0.00;;;;;;;15.24;84.32;101295.22;4963108;28;20069;-73
2022/09/04 00:05:51;;;;;;;0.00;0.00;;;;;;;15.07;83.60;101294.06;4983967;28;20057;-73
2022/09/04 00:08:41;;;;;;;0.03;0.03;;;;;;;14.92;86.22;101307.13;4976840;28;20026;-73
2022/09/04 00:11:26;;;;;;;0.00;0.00;;;;;;;14.78;88.11;101302.94;4963477;28;20459;-72
2022/09/04 00:13:57;;;;;;;0.00;0.00;;;;;;;14.95;88.32;101314.97;4965573;28;20031;-73
2022/09/04 00:16:41;;;;;;;0.00;0.00;;;;;;;14.77;86.70;101295.81;4961852;28;20031;-73
2022/09/04 00:19:27;;;;;;;;;;;;;;;14.66;93.00;101328.28;4963253;28;20023;-74
2022/09/04 00:21:56;;;;;;;0.05;0.05;;;;;;;14.69;92.15;101330.75;4960810;28;19953;-73
2022/09/04 00:24:25;;;;;;;0.00;0.00;;;;;;;14.77;91.17;101330.06;4979102;28;20129;-72
2022/09/04 00:27:31;;;;;;;0.00;0.00;;;;;;;14.77;88.98;101324.66;4966231;28;20266;-72
2022/09/04 00:30:07;;;;;;;0.00;0.00;;;;;;;14.81;88.13;101329.69;4962735;28;20339;-72
2022/09/04 00:32:53;;;;;;;0.00;0.00;;;;;;;14.73;87.78;101337.63;4980924;28;20034;-72
2022/09/04 00:35:37;;;;;;;0.00;0.00;;;;;;;14.62;90.29;101325.00;4965561;28;20481;-73
2022/09/04 00:38:14;;;;;;;0.00;0.00;;;;;;;14.64;92.09;101330.28;4984708;28;20061;-72
2022/09/04 00:40:46;;;;;;;0.00;0.00;;;;;;;14.64;91.86;101319.47;4977441;28;20579;-73
2022/09/04 00:43:24;;;;;;;0.05;0.05;;;;;;;14.70;91.72;101338.72;4982278;28;20030;-72
2022/09/04 00:46:04;;;;;;;0.00;0.00;;;;;;;14.78;90.40;101329.97;4966336;28;20141;-73
2022/09/04 00:49:02;;;;;;;0.10;0.10;;;;;;;14.81;91.24;101318.88;4968160;28;20412;-70
2022/09/04 00:52:24;;;;;;;0.00;0.00;;;;;;;14.82;90.52;101342.22;4963285;28;20699;-73
2022/09/04 00:55:37;;;;;;;0.00;0.00;;;;;;;14.81;91.71;101343.22;4965193;28;20049;-73
2022/09/04 00:58:25;;;;;;;0.00;0.00;;;;;;;14.83;91.70;101324.13;4932503;28;20043;-72
2022/09/04 01:00:52;;;;;;;0.10;0.10;;;;;;;14.78;89.89;101338.06;4978967;28;20031;-72
2022/09/04 01:03:44;;;;;;;0.00;0.00;;;;;;;14.83;90.95;101343.06;4968300;28;20045;-71
2022/09/04 01:06:31;;;;;;;0.03;0.03;;;;;;;15.01;94.19;101340.59;4970810;28;20038;-71
2022/09/04 01:09:03;;;;;;;0.00;0.00;;;;;;;14.91;91.52;101324.31;4978698;28;20498;-73
2022/09/04 01:11:28;;;;;;;0.00;0.00;;;;;;;15.07;97.20;101345.44;4965328;28;20042;-73
2022/09/04 01:14:12;;;;;;;0.00;0.00;;;;;;;15.05;96.76;101355.53;4962201;28;20603;-69
2022/09/04 01:16:46;;;;;;;0.10;0.10;;;;;;;15.02;94.93;101349.53;4968859;28;20319;-69
2022/09/04 01:19:20;;;;;;;0.03;0.03;;;;;;;15.07;94.91;101337.34;4966804;28;20023;-73
2022/09/04 01:21:48;;;;;;;0.00;0.00;;;;;;;15.20;96.38;101352.44;4962232;28;20429;-74
2022/09/04 01:24:21;;;;;;;0.00;0.00;;;;;;;14.87;93.23;101376.06;4979200;28;20397;-75
2022/09/04 01:27:21;;;;;;;0.10;0.10;;;;;;;14.73;100.00;101372.75;4967799;28;20782;-73
2022/09/04 01:30:06;;;;;;;0.00;0.00;;;;;;;14.89;99.41;101368.69;4925919;28;20049;-72
2022/09/04 01:33:03;;;;;;;0.00;0.00;;;;;;;15.03;96.88;101368.34;4979192;28;20034;-73
2022/09/04 01:35:51;;;;;;;0.00;0.00;;;;;;;15.05;96.67;101382.59;4967161;28;20441;-72
2022/09/04 01:38:27;;;;;;;0.00;0.00;;;;;;;15.05;97.06;101379.88;4946635;28;20126;-73
2022/09/04 01:40:59;;;;;;;0.00;0.00;;;;;;;15.08;95.27;101373.34;4967759;28;20034;-73
2022/09/04 01:43:24;;;;;;;0.00;0.00;;;;;;;15.01;96.33;101340.59;4966687;28;20037;-72
2022/09/04 01:46:08;;;;;;;0.00;0.00;;;;;;;15.10;94.59;101380.31;4966002;28;20027;-73
2022/09/04 01:48:42;;;;;;;0.00;0.00;;;;;;;15.06;97.05;101376.19;4966874;28;20062;-73
2022/09/04 01:51:46;;;;;;;0.00;0.00;;;;;;;15.11;97.08;101381.19;4976435;28;20548;-73
2022/09/04 01:54:18;;;;;;;0.00;0.00;;;;;;;15.10;97.36;101380.31;4966271;28;20030;-72
2022/09/04 01:56:47;;;;;;;0.00;0.00;;;;;;;15.13;96.69;101381.91;4967244;28;20038;-73
2022/09/04 01:59:25;;;;;;;0.00;0.00;;;;;;;15.14;98.51;101386.31;4964349;28;20066;-73
2022/09/04 02:02:03;;;;;;;0.00;0.00;;;;;;;15.10;99.64;101383.00;4959177;28;20541;-73
2022/09/04 02:04:50;;;;;;;0.00;0.00;;;;;;;15.13;98.11;101395.44;4959925;28;20085;-72
2022/09/04 02:07:26;;;;;;;0.00;0.00;;;;;;;15.09;99.70;101386.75;4959535;28;20437;-72
2022/09/04 02:10:02;;;;;;;0.10;0.10;;;;;;;15.24;99.64;101397.16;4963584;28;20100;-73
2022/09/04 02:13:21;;;;;;;0.00;0.00;;;;;;;15.26;97.80;101403.31;4973770;28;20043;-73
2022/09/04 02:15:57;;;;;;;0.00;0.00;;;;;;;15.12;96.00;101397.25;4940039;28;20034;-72
2022/09/04 02:18:54;;;;;;;0.10;0.10;;;;;;;15.08;97.99;101403.97;4977168;28;20053;-73
2022/09/04 02:21:25;;;;;;;0.00;0.00;;;;;;;14.99;97.53;101397.47;4961409;28;20123;-72
2022/09/04 02:24:02;;;;;;;0.00;0.00;;;;;;;14.97;98.00;101409.44;4961165;28;20117;-73
2022/09/04 02:26:54;;;;;;;0.00;0.00;;;;;;;14.97;98.71;101410.28;4975930;28;20033;-73
2022/09/04 02:29:31;;;;;;;0.03;0.03;;;;;;;14.89;97.86;101410.13;4981528;28;20034;-73
2022/09/04 02:32:22;;;;;;;0.00;0.00;;;;;;;14.82;99.93;101415.22;4960174;28;20137;-73
2022/09/04 02:35:29;;;;;;;0.03;0.03;;;;;;;14.86;99.89;101421.19;4963722;28;20097;-73
2022/09/04 02:38:04;;;;;;;0.10;0.10;;;;;;;14.81;96.15;101423.44;4961930;28;20494;-73
2022/09/04 02:40:54;;;;;;;0.00;0.00;;;;;;;14.70;94.11;101429.78;4959070;28;20137;-73
2022/09/04 02:43:40;;;;;;;0.10;0.10;;;;;;;14.60;94.75;101431.50;4958685;28;20074;-73
2022/09/04 02:46:24;;;;;;;0.00;0.00;;;;;;;14.58;94.48;101425.38;4958400;28;20030;-73
2022/09/04 02:49:28;;;;;;;0.03;0.03;;;;;;;14.36;93.79;101406.47;4963845;28;20508;-73
2022/09/04 02:52:25;;;;;;;0.00;0.00;;;;;;;14.37;92.71;101440.59;4963771;28;20505;-73
2022/09/04 02:55:29;;;;;;;0.00;0.00;;;;;;;14.35;94.19;101434.47;4971484;28;20026;-73
2022/09/04 02:58:16;;;;;;;0.00;0.00;;;;;;;14.31;95.01;101437.53;4963282;28;20447;-73
2022/09/04 03:01:11;;;;;;;0.00;0.00;;;;;;;14.25;95.44;101433.53;4980164;28;20069;-73
2022/09/04 03:03:42;;;;;;;0.00;0.00;;;;;;;14.31;96.75;101432.13;4976876;28;20063;-73
2022/09/04 03:06:18;;;;;;;0.03;0.03;;;;;;;14.30;96.61;101431.28;4959492;28;20062;-73
2022/09/04 03:09:05;;;;;;;0.00;0.00;;;;;;;14.28;94.53;101435.97;4959659;28;20031;-73
2022/09/04 03:11:34;;;;;;;0.00;0.00;;;;;;;14.23;94.04;101443.59;4980522;28;20039;-73
2022/09/04 03:14:12;;;;;;;0.03;0.03;;;;;;;14.01;95.35;101401.34;4982591;28;20030;-72
2022/09/04 03:16:42;;;;;;;0.00;0.00;;;;;;;14.22;96.95;101440.06;4978489;28;20081;-73
2022/09/04 03:19:28;;;;;;;0.08;0.08;;;;;;;14.16;96.25;101450.50;4973829;28;20436;-73
2022/09/04 03:22:04;;;;;;;0.00;0.00;;;;;;;14.04;94.71;101446.97;4977361;28;20031;-73
2022/09/04 03:24:59;;;;;;;0.10;0.10;;;;;;;13.98;95.78;101451.03;4980238;28;20045;-73
2022/09/04 03:27:25;;;;;;;0.00;0.00;;;;;;;14.02;95.89;101451.66;4980483;28;20026;-73
2022/09/04 03:30:02;;;;;;;0.00;0.00;;;;;;;14.03;95.05;101451.53;4964260;28;20023;-73
2022/09/04 03:32:43;;;;;;;0.00;0.00;;;;;;;14.02;93.96;101451.66;4943976;28;20062;-73
2022/09/04 03:35:17;;;;;;;0.08;0.08;;;;;;;13.95;94.18;101456.69;4978960;28;20477;-73
2022/09/04 03:37:56;;;;;;;0.08;0.08;;;;;;;13.80;93.36;101456.09;4965625;28;20104;-73
2022/09/04 03:40:30;;;;;;;0.00;0.00;;;;;;;13.85;94.68;101453.06;4978623;28;20041;-73
2022/09/04 03:43:02;;;;;;;0.00;0.00;;;;;;;13.86;95.14;101461.00;4960695;28;20522;-73
2022/09/04 03:45:45;;;;;;;0.10;0.10;;;;;;;13.89;94.10;101459.91;4961158;28;20034;-73
2022/09/04 03:48:27;;;;;;;0.00;0.00;;;;;;;13.86;94.71;101454.78;4967527;28;20552;-73
2022/09/04 03:50:58;;;;;;;0.00;0.00;;;;;;;13.83;94.74;101453.16;4978221;28;20035;-73
2022/09/04 03:53:35;;;;;;;0.00;0.00;;;;;;;13.88;94.37;101452.81;4976853;28;20022;-73
2022/09/04 03:56:14;;;;;;;0.00;0.00;;;;;;;13.86;94.96;101457.47;4965438;28;20027;-73
2022/09/04 03:58:47;;;;;;;0.00;0.00;;;;;;;13.88;94.31;101455.50;4971092;28;20023;-72
2022/09/04 04:01:27;;;;;;;0.00;0.00;;;;;;;13.86;92.71;101465.56;4960177;28;20038;-73
2022/09/04 04:04:02;;;;;;;0.00;0.00;;;;;;;13.75;92.39;101463.75;4963761;28;20082;-73
2022/09/04 04:07:06;;;;;;;0.00;0.00;;;;;;;13.73;93.74;101476.50;4965166;28;20078;-74
2022/09/04 04:09:34;;;;;;;0.00;0.00;;;;;;;13.64;93.05;101476.25;4975625;28;20066;-73
2022/09/04 04:12:13;;;;;;;0.00;0.00;;;;;;;13.50;93.71;101466.56;4967472;28;20027;-73
2022/09/04 04:14:51;;;;;;;0.05;0.05;;;;;;;13.46;94.37;101483.16;4980722;28;20030;-73
2022/09/04 04:18:01;;;;;;;0.00;0.00;;;;;;;13.48;95.09;101478.47;4967385;28;20031;-73
2022/09/04 04:20:29;;;;;;;0.00;0.00;;;;;;;13.49;96.87;101478.34;4964920;28;20050;-73
2022/09/04 04:23:21;;;;;;;0.10;0.10;;;;;;;13.40;95.95;101464.72;4966505;28;20038;-73
2022/09/04 04:26:08;;;;;;;0.00;0.00;;;;;;;13.49;95.93;101486.44;4965037;28;20461;-73
2022/09/04 04:28:46;;;;;;;0.00;0.00;;;;;;;13.43;96.95;101489.63;4984557;28;20034;-74
2022/09/04 04:31:24;;;;;;;0.03;0.03;;;;;;;13.47;97.72;101488.41;4963527;28;20073;-73
2022/09/04 04:33:58;;;;;;;0.00;0.00;;;;;;;13.45;97.36;101492.22;4967728;28;20034;-73
2022/09/04 04:36:46;;;;;;;0.10;0.10;;;;;;;13.53;99.70;101497.00;4982541;28;20045;-73
2022/09/04 04:39:23;;;;;;;0.00;0.00;;;;;;;13.50;100.00;101488.16;4981511;28;20026;-73
2022/09/04 04:42:03;;;;;;;0.00;0.00;;;;;;;13.55;99.29;101500.44;4966318;28;20027;-73
2022/09/04 04:48:00;;;;;;;0.08;0.08;;;;;;;13.52;100.00;101482.63;4966851;28;20523;-74
2022/09/04 04:50:44;;;;;;;0.00;0.00;;;;;;;13.71;98.05;101505.44;4966411;28;20042;-73
2022/09/04 04:53:30;;;;;;;0.00;0.00;;;;;;;13.68;97.41;101513.78;4966605;28;20045;-73
2022/09/04 04:56:16;;;;;;;0.00;0.00;;;;;;;13.71;97.42;101505.44;4983062;28;20066;-73
2022/09/04 04:59:04;;;;;;;0.00;0.00;;;;;;;13.82;97.34;101515.38;4980781;28;20059;-73
2022/09/04 05:01:45;;;;;;;0.00;0.00;;;;;;;13.71;95.58;101508.16;4964276;28;20038;-73
2022/09/04 05:04:24;;;;;;;0.00;0.00;;;;;;;13.74;96.02;101516.00;4975837;28;20031;-73
2022/09/04 05:07:06;;;;;;;0.00;0.00;;;;;;;13.79;96.64;101522.72;4969782;28;20406;-73
2022/09/04 05:09:46;;;;;;;0.00;0.00;;;;;;;13.87;96.68;101526.66;4971023;28;20041;-73
2022/09/04 05:12:37;;;;;;;0.00;0.00;;;;;;;13.87;96.12;101530.22;4981480;28;20368;-73
2022/09/04 05:15:40;;;;;;;0.10;0.10;;;;;;;13.85;96.06;101531.31;4980984;28;20039;-73
2022/09/04 05:18:26;;;;;;;0.00;0.00;;;;;;;13.94;98.79;101530.56;4982447;28;20027;-73
2022/09/04 05:20:58;;;;;;;0.10;0.10;;;;;;;13.97;98.66;101537.56;4983482;28;21662;-73
2022/09/04 05:23:36;;;;;;;0.10;0.10;;;;;;;13.94;97.90;101538.66;4981735;28;20041;-73
2022/09/04 05:26:22;;;;;;;0.00;0.00;;;;;;;13.90;100.00;101548.84;4984120;28;20039;-73
2022/09/04 05:28:59;;;;;;;0.00;0.00;;;;;;;13.96;100.00;101550.19;4982121;28;20107;-73
2022/09/04 05:31:39;;;;;;;0.00;0.00;;;;;;;14.04;100.00;101557.66;4966260;28;20113;-73
2022/09/04 05:34:15;;;;;;;0.00;0.00;;;;;;;14.05;100.00;101553.97;4963348;28;20031;-73
2022/09/04 05:36:45;;;;;;;0.10;0.10;;;;;;;14.17;100.00;101568.34;4981724;28;20034;-73
2022/09/04 05:39:21;;;;;;;0.10;0.10;;;;;;;14.06;100.00;101532.28;4981085;28;20110;-73
2022/09/04 05:42:01;;;;;;;0.10;0.10;;;;;;;14.30;100.00;101569.03;4980496;28;20102;-73
2022/09/04 05:44:35;;;;;;;0.00;0.00;;;;;;;14.42;100.00;101560.94;4969426;28;20073;-73
2022/09/04 05:47:08;;;;;;;0.10;0.10;;;;;;;14.47;100.00;101573.06;4981483;28;20030;-73
2022/09/04 05:49:43;;;;;;;0.00;0.00;;;;;;;14.62;100.00;101570.06;4980746;28;20384;-73
2022/09/04 05:52:40;;;;;;;0.10;0.10;;;;;;;14.76;100.00;101574.34;4961841;28;20564;-73
2022/09/04 05:55:30;;;;;;;0.20;0.08;;;;;;;14.89;100.00;101583.16;4967731;28;20477;-73
2022/09/04 05:58:11;;;;;;;0.00;0.00;;;;;;;14.98;100.00;101584.19;4978863;28;20458;-73
2022/09/04 06:01:22;;;;;;;0.00;0.00;;;;;;;15.03;100.00;101589.22;4963759;28;20019;-73
2022/09/04 06:04:00;;;;;;;0.10;0.10;;;;;;;15.07;100.00;101583.44;4964186;28;20050;-74
2022/09/04 06:06:44;;;;;;;0.00;0.00;;;;;;;15.18;100.00;101587.91;4967416;28;20590;-73
2022/09/04 06:09:18;;;;;;;0.00;0.00;;;;;;;15.29;100.00;101589.69;4980196;28;20050;-73
2022/09/04 06:12:26;;;;;;;0.00;0.00;;;;;;;15.38;100.00;101597.00;4970496;28;20038;-73
2022/09/04 06:15:03;;;;;;;0.00;0.00;;;;;;;15.46;100.00;101590.94;4942883;28;22069;-73
2022/09/04 06:17:53;;;;;;;0.00;0.00;;;;;;;15.56;100.00;101594.53;4964478;28;20042;-73
2022/09/04 06:20:43;;;;;;;0.10;0.10;;;;;;;15.70;100.00;101603.31;4960507;28;20019;-73
2022/09/04 06:23:18;;;;;;;0.00;0.00;;;;;;;15.80;100.00;101601.50;4965368;28;20030;-73
2022/09/04 06:25:43;;;;;;;0.00;0.00;;;;;;;15.86;100.00;101603.72;4981056;28;20097;-73
2022/09/04 06:28:30;;;;;;;0.00;0.00;;;;;;;15.94;100.00;101604.88;4965656;28;20118;-72
2022/09/04 06:31:12;;;;;;;0.00;0.00;;;;;;;16.02;100.00;101591.53;4964008;28;20288;-73
2022/09/04 06:33:51;;;;;;;0.00;0.00;;;;;;;16.18;100.00;101604.53;4963702;28;20081;-73
2022/09/04 06:36:36;;;;;;;0.10;0.10;;;;;;;16.30;100.00;101608.84;4962749;28;20026;-73
2022/09/04 06:39:20;;;;;;;0.00;0.00;;;;;;;16.44;100.00;101602.19;4964279;28;20477;-73
2022/09/04 06:41:55;;;;;;;0.00;0.00;;;;;;;16.57;100.00;101618.19;4964992;28;21383;-73
2022/09/04 06:44:42;;;;;;;0.10;0.10;;;;;;;16.67;100.00;101620.06;4981549;28;20066;-73
2022/09/04 06:47:37;;;;;;;0.10;0.10;;;;;;;16.71;100.00;101618.75;4977140;28;20566;-73
2022/09/04 06:50:30;;;;;;;0.00;0.00;;;;;;;16.88;100.00;101625.34;4959371;28;21788;-71
2022/09/04 06:53:20;;;;;;;0.10;0.10;;;;;;;16.95;100.00;101629.22;4957988;28;20406;-73
2022/09/04 06:56:00;;;;;;;0.10;0.10;;;;;;;17.16;100.00;101633.66;4973779;28;20045;-73
2022/09/04 06:58:53;;;;;;;0.00;0.00;;;;;;;17.17;99.23;101630.81;4962071;28;20440;-72
2022/09/04 07:01:39;;;;;;;0.10;0.10;;;;;;;17.28;99.57;101631.66;4964879;28;20460;-72
2022/09/04 07:04:19;;;;;;;0.00;0.00;;;;;;;17.28;100.00;101626.22;4965382;28;20054;-71
2022/09/04 07:07:03;;;;;;;0.03;0.03;;;;;;;17.46;98.52;101620.91;4960278;28;20026;-71
2022/09/04 07:09:36;;;;;;;0.08;0.08;;;;;;;17.62;97.91;101626.59;4962645;28;20035;-72
2022/09/04 07:12:18;;;;;;;0.00;0.00;;;;;;;17.72;98.64;101623.00;4967111;28;20053;-72
2022/09/04 07:14:50;;;;;;;0.00;0.00;;;;;;;17.88;97.26;101633.25;4979899;28;20031;-73
2022/09/04 07:17:27;;;;;;;0.00;0.00;;;;;;;17.99;97.17;101633.94;4958181;28;20150;-73
2022/09/04 07:20:01;;;;;;;0.03;0.03;;;;;;;18.18;94.91;101640.28;4966018;28;20033;-72
2022/09/04 07:22:46;;;;;;;0.00;0.00;;;;;;;18.23;94.03;101639.84;4962305;28;20462;-72
2022/09/04 07:25:18;;;;;;;0.00;0.00;;;;;;;18.34;94.20;101642.34;4978758;28;20122;-72
2022/09/04 07:27:57;;;;;;;0.00;0.00;;;;;;;18.41;93.35;101646.19;4963097;28;20049;-72
2022/09/04 07:30:24;;;;;;;0.00;0.00;;;;;;;18.44;92.74;101634.16;4973587;28;20413;-72
2022/09/04 07:32:59;;;;;;;0.05;0.05;;;;;;;18.73;91.97;101646.69;4978854;28;20389;-72
2022/09/04 07:35:38;;;;;;;0.00;0.00;;;;;;;18.79;91.92;101640.66;4959340;28;20058;-71
2022/09/04 07:38:31;;;;;;;0.05;0.05;;;;;;;18.93;90.27;101652.03;4977529;28;21128;-72
2022/09/04 07:41:09;;;;;;;0.00;0.00;;;;;;;19.03;90.08;101645.53;4964663;28;20502;-72
2022/09/04 07:43:56;;;;;;;0.00;0.00;;;;;;;19.37;88.68;101652.09;4978910;28;20506;-70
2022/09/04 07:46:43;;;;;;;0.00;0.00;;;;;;;19.36;89.86;101654.97;4957456;28;20031;-71
2022/09/04 07:49:19;;;;;;;0.00;0.00;;;;;;;19.57;87.29;101660.06;4961092;28;20030;-68
2022/09/04 07:51:51;;;;;;;0.00;0.00;;;;;;;19.62;87.17;101655.84;4978398;28;20034;-71
2022/09/04 07:54:34;;;;;;;0.00;0.00;;;;;;;19.68;87.12;101657.09;4966103;28;20023;-72
2022/09/04 07:57:27;;;;;;;0.00;0.00;;;;;;;19.81;85.51;101653.94;4977304;28;20396;-72
2022/09/04 08:00:09;;;;;;;0.45;0.00;;;;;;;19.97;85.46;101652.34;4964410;28;20384;-72
2022/09/04 08:02:48;;;;;;;0.00;0.00;;;;;;;20.22;85.17;101659.63;4965281;28;20460;-73
2022/09/04 08:05:23;;;;;;;0.00;0.00;;;;;;;20.25;84.18;101655.75;4979146;28;20030;-72
2022/09/04 08:08:10;;;;;;;0.00;0.00;;;;;;;20.37;83.61;101659.03;4973828;28;20039;-71
2022/09/04 08:10:45;;;;;;;0.00;0.00;;;;;;;20.65;82.83;101666.97;4972189;28;20038;-72
2022/09/04 08:13:21;;;;;;;0.00;0.00;;;;;;;20.93;81.26;101663.97;4962168;28;20046;-69
2022/09/04 08:16:03;;;;;;;0.05;0.00;;;;;;;21.06;80.39;101674.38;4965147;28;20110;-71
2022/09/04 08:18:49;;;;;;;0.00;0.00;;;;;;;21.31;80.07;101671.69;4957053;28;20449;-73
2022/09/04 08:21:30;;;;;;;0.00;0.00;;;;;;;21.54;78.69;101671.84;4961370;28;20033;-72
2022/09/04 08:24:05;;;;;;;0.03;0.03;;;;;;;21.71;79.16;101679.03;4964559;28;20033;-72
2022/09/04 08:26:39;;;;;;;0.00;0.00;;;;;;;21.79;77.20;101677.31;4962657;28;20038;-69
2022/09/04 08:29:20;;;;;;;0.00;0.00;;;;;;;22.09;77.40;101683.03;4978856;28;20065;-73
2022/09/04 08:32:15;;;;;;;0.00;0.00;;;;;;;22.11;75.92;101684.59;4958969;28;20035;-68
2022/09/04 08:34:59;;;;;;;0.00;0.00;;;;;;;22.17;75.62;101683.88;4960687;28;20340;-68
2022/09/04 08:37:27;;;;;;;0.00;0.00;;;;;;;22.14;74.98;101689.69;4959780;28;20030;-70
2022/09/04 08:40:17;;;;;;;0.00;0.00;;;;;;;22.19;75.72;101686.44;4978672;28;20023;-70
2022/09/04 08:42:58;;;;;;;0.00;0.00;;;;;;;22.18;75.99;101671.91;4981193;28;20031;-74
2022/09/04 08:45:37;;;;;;;0.00;0.00;;;;;;;22.27;73.64;101697.31;4963604;28;20559;-71
2022/09/04 08:48:34;;;;;;;0.00;0.00;;;;;;;22.41;73.74;101700.38;4975344;28;20457;-76
2022/09/04 08:51:03;;;;;;;0.00;0.00;;;;;;;22.76;73.74;101701.75;4962068;28;20481;-70
2022/09/04 08:53:40;;;;;;;0.00;0.00;;;;;;;22.82;71.75;101702.09;4963220;28;20026;-71
2022/09/04 08:56:57;;;;;;;0.00;0.00;;;;;;;22.95;72.07;101709.72;4969208;28;20413;-70
2022/09/04 08:59:59;;;;;;;0.00;0.00;;;;;;;23.13;70.09;101712.16;4964226;28;20445;-74
2022/09/04 09:03:02;;;;;;;0.00;0.00;;;;;;;23.10;71.68;101709.78;4960817;28;20520;-73
2022/09/04 09:06:05;;;;;;;0.00;0.00;;;;;;;23.39;70.28;101711.81;4963745;28;20482;-68
2022/09/04 09:08:47;;;;;;;0.00;0.00;;;;;;;23.48;70.80;101713.47;4960788;28;20035;-73
2022/09/04 09:11:24;;;;;;;0.00;0.00;;;;;;;23.44;69.20;101701.16;4977423;28;20030;-71
2022/09/04 09:14:21;;;;;;;0.00;0.00;;;;;;;23.67;68.37;101692.91;4965383;28;20045;-72
2022/09/04 09:16:58;;;;;;;0.00;0.00;;;;;;;24.03;68.38;101702.34;4963736;28;20132;-73
2022/09/04 09:19:43;;;;;;;0.00;0.00;;;;;;;23.93;68.23;101680.66;4977841;28;20026;-73
2022/09/04 09:22:35;;;;;;;0.00;0.00;;;;;;;24.27;68.07;101689.38;4981026;28;20026;-77
2022/09/04 09:25:32;;;;;;;0.00;0.00;;;;;;;24.29;64.76;101694.66;4962613;28;20053;-70
2022/09/04 09:28:09;;;;;;;0.00;0.00;;;;;;;24.57;65.25;101689.34;4965604;28;20038;-73
2022/09/04 09:31:12;;;;;;;0.00;0.00;;;;;;;24.76;63.77;101693.41;4963435;28;20490;-75
2022/09/04 09:34:04;;;;;;;0.00;0.00;;;;;;;24.67;65.23;101689.88;4966796;28;20031;-72
2022/09/04 09:37:01;;;;;;;0.00;0.00;;;;;;;24.93;62.87;101685.75;4948982;28;20065;-72
2022/09/04 09:39:45;;;;;;;0.00;0.00;;;;;;;25.06;62.05;101686.97;4977795;28;20482;-73
2022/09/04 09:42:38;;;;;;;0.00;0.00;;;;;;;25.30;60.89;101689.31;4968564;28;20038;-68
2022/09/04 09:45:35;;;;;;;0.00;0.00;;;;;;;25.31;59.17;101691.00;4968837;28;20031;-71
2022/09/04 09:48:19;;;;;;;0.00;0.00;;;;;;;25.14;59.79;101693.16;4949259;28;20039;-76
2022/09/04 09:50:57;;;;;;;0.00;0.00;;;;;;;25.29;58.67;101695.00;4963769;28;20042;-72
2022/09/04 09:53:41;;;;;;;0.00;0.00;;;;;;;25.36;59.48;101695.91;4967017;28;20058;-70
2022/09/04 09:56:10;;;;;;;0.00;0.00;;;;;;;25.44;59.98;101692.19;4966607;28;20030;-68
2022/09/04 09:58:45;;;;;;;0.00;0.00;;;;;;;25.67;57.52;101693.88;4982557;28;20444;-72
2022/09/04 10:01:32;;;;;;;0.00;0.00;;;;;;;25.69;57.81;101695.38;4964395;28;20022;-69
2022/09/04 10:04:10;;;;;;;0.00;0.00;;;;;;;25.69;57.89;101700.03;4980036;28;20022;-69
2022/09/04 10:07:04;;;;;;;0.00;0.00;;;;;;;25.69;59.10;101687.13;4965276;28;20019;-73
2022/09/04 10:10:04;;;;;;;0.00;0.00;;;;;;;26.03;56.81;101692.84;4961092;28;20549;-76
2022/09/04 10:12:49;;;;;;;0.00;0.00;;;;;;;25.96;56.72;101683.69;4953316;28;20039;-75
2022/09/04 10:15:28;;;;;;;0.00;0.00;;;;;;;26.14;58.11;101694.19;4963568;28;20031;-70
2022/09/04 10:18:32;;;;;;;0.00;0.00;;;;;;;26.21;57.34;101695.09;4962186;28;20517;-72
2022/09/04 10:21:11;;;;;;;0.00;0.00;;;;;;;26.50;55.52;101684.88;4980299;28;20074;-69
2022/09/04 10:24:05;;;;;;;0.00;0.00;;;;;;;26.55;54.12;101692.50;4977300;28;21277;-68
2022/09/04 10:27:08;;;;;;;0.00;0.00;;;;;;;26.99;55.38;101687.56;4961284;28;20027;-74
2022/09/04 10:29:45;;;;;;;0.00;0.00;;;;;;;26.65;54.66;101676.44;4960944;28;20081;-68
2022/09/04 10:32:36;;;;;;;0.00;0.00;;;;;;;26.35;52.12;101671.25;4958871;28;20026;-72
2022/09/04 10:35:26;;;;;;;0.00;0.00;;;;;;;26.28;55.33;101684.13;4961075;28;20037;-74
2022/09/04 10:38:10;;;;;;;0.00;0.00;;;;;;;26.62;54.71;101691.47;4962844;28;20049;-69
2022/09/04 10:41:05;;;;;;;0.00;0.00;;;;;;;26.89;52.82;101688.81;4959301;28;20135;-73
2022/09/04 10:43:37;;;;;;;0.00;0.00;;;;;;;27.06;53.98;101697.56;4965652;28;20042;-74
2022/09/04 10:46:19;;;;;;;0.00;0.00;;;;;;;27.13;51.36;101700.34;4962956;28;20501;-74
2022/09/04 10:49:00;;;;;;;0.00;0.00;;;;;;;27.27;53.41;101700.34;4981573;28;20050;-74
2022/09/04 10:51:51;;;;;;;0.00;0.00;;;;;;;27.09;50.74;101708.16;4965611;28;20551;-72
2022/09/04 10:54:42;;;;;;;0.00;0.00;;;;;;;27.45;50.86;101703.31;4978220;28;20022;-74
2022/09/04 10:57:13;;;;;;;0.00;0.00;;;;;;;27.86;50.85;101689.53;4976413;28;20074;-71
2022/09/04 11:00:05;;;;;;;0.00;0.00;;;;;;;27.67;50.73;101692.94;4979712;28;20473;-73
2022/09/04 11:02:52;;;;;;;0.00;0.00;;;;;;;27.62;49.83;101692.75;4964353;28;20042;-79
2022/09/04 11:05:31;;;;;;;0.00;0.00;;;;;;;27.51;50.79;101696.16;4966452;28;20035;-71
2022/09/04 11:08:03;;;;;;;0.00;0.00;;;;;;;27.44;51.39;101695.28;4964159;28;20494;-79
2022/09/04 11:10:50;;;;;;;0.00;0.00;;;;;;;27.41;51.23;101691.03;4965193;28;20034;-74
2022/09/04 11:13:39;;;;;;;0.00;0.00;;;;;;;26.71;51.25;101694.91;4964146;28;20102;-73
2022/09/04 11:16:18;;;;;;;0.00;0.00;;;;;;;26.32;52.76;101690.91;4968540;28;20038;-76
2022/09/04 11:18:52;;;;;;;0.00;0.00;;;;;;;25.87;54.63;101692.13;4977297;28;20034;-75
2022/09/04 11:21:54;;;;;;;0.00;0.00;;;;;;;26.25;54.26;101690.91;4977334;28;20073;-73
2022/09/04 11:25:06;;;;;;;0.00;0.00;;;;;;;26.28;53.50;101676.72;4965587;28;20038;-76
2022/09/04 11:27:50;;;;;;;0.00;0.00;;;;;;;26.33;54.41;101695.38;4959759;28;20039;-77
2022/09/04 11:30:37;;;;;;;0.00;0.00;;;;;;;26.80;50.78;101684.53;4967402;28;20242;-72
2022/09/04 11:33:32;;;;;;;0.00;0.00;;;;;;;27.17;49.02;101692.50;4961154;28;20136;-78
2022/09/04 11:36:21;;;;;;;0.00;0.00;;;;;;;26.80;50.59;101696.44;4965625;28;20041;-78
2022/09/04 11:38:59;;;;;;;0.00;0.00;;;;;;;26.39;51.95;101666.16;4962929;28;20058;-78
2022/09/04 11:41:49;;;;;;;0.00;0.00;;;;;;;26.09;51.88;101669.19;4964663;28;20085;-72
2022/09/04 11:44:46;;;;;;;0.00;0.00;;;;;;;26.25;52.92;101696.41;4981785;28;20109;-71
2022/09/04 11:47:22;;;;;;;0.00;0.00;;;;;;;26.37;51.41;101691.16;4972983;28;20035;-72
2022/09/04 11:50:13;;;;;;;0.00;0.00;;;;;;;26.68;50.51;101691.69;4974828;28;20034;-77
2022/09/04 11:52:59;;;;;;;0.00;0.00;;;;;;;26.74;49.59;101688.13;4965020;28;20322;-78
2022/09/04 11:55:36;;;;;;;0.00;0.00;;;;;;;27.00;50.03;101670.84;4964397;28;20402;-76
2022/09/04 11:58:39;;;;;;;0.00;0.00;;;;;;;27.49;49.27;101687.25;4965253;28;20115;-74
2022/09/04 12:01:26;;;;;;;0.00;0.00;;;;;;;26.91;50.57;101691.38;4957628;28;20105;-74
2022/09/04 12:04:21;;;;;;;0.00;0.00;;;;;;;26.52;49.89;101691.00;4962599;28;20806;-74
2022/09/04 12:07:07;;;;;;;0.00;0.00;;;;;;;26.27;51.70;101693.44;4962620;28;20031;-78
2022/09/04 12:10:01;;;;;;;0.00;0.00;;;;;;;26.68;52.36;101700.81;4961717;28;20373;-75
2022/09/04 12:12:32;;;;;;;0.00;0.00;;;;;;;27.17;50.89;101700.75;4959710;28;20355;-74
2022/09/04 12:15:15;;;;;;;0.00;0.00;;;;;;;27.91;47.68;101700.78;4963986;28;20065;-74
2022/09/04 12:17:56;;;;;;;0.00;0.00;;;;;;;28.43;46.47;101698.09;4962778;28;20330;-74
2022/09/04 12:21:02;;;;;;;0.00;0.00;;;;;;;28.71;44.79;101695.03;4961994;28;20109;-73
2022/09/04 12:23:37;;;;;;;0.00;0.00;;;;;;;28.85;43.76;101708.78;4959835;28;20050;-75
2022/09/04 12:26:24;;;;;;;0.00;0.00;;;;;;;29.74;43.52;101703.25;4979844;28;20026;-76
2022/09/04 12:29:18;;;;;;;0.00;0.00;;;;;;;29.53;43.01;101709.19;4963709;28;20073;-78
2022/09/04 12:31:50;;;;;;;0.00;0.00;;;;;;;28.62;44.70;101701.00;4970906;28;20118;-76
2022/09/04 12:34:38;;;;;;;0.00;0.00;;;;;;;28.98;43.24;101703.19;4967936;28;20731;-71
2022/09/04 12:37:21;;;;;;;0.00;0.00;;;;;;;29.05;41.31;101703.13;4965326;28;20543;-70
2022/09/04 12:40:05;;;;;;;0.00;0.00;;;;;;;29.15;42.72;101697.94;4969914;28;20801;-70
2022/09/04 12:43:03;;;;;;;0.00;0.00;;;;;;;29.65;41.29;101701.00;4979322;28;20516;-73